sensor_id;sensor_type;location;lat;lon;timestamp;P1;durP1;ratioP1;P2;durP2;ratioP2
12369;SDS011;6249;52.128;9.986;2023-06-04T00:03:26;3.83;;;1.95;;
12369;SDS011;6249;52.128;9.986;2023-06-04T00:13:27;3.70;;;1.87;;
12369;SDS011;6249;52.128;9.986;2023-06-04T00:23:27;4.93;;;1.93;;
12369;SDS011;6249;52.128;9.986;2023-06-04T00:33:28;4.40;;;2.10;;
12369;SDS011;6249;52.128;9.986;2023-06-04T00:43:29;5.05;;;1.85;;
12369;SDS011;6249;52.128;9.986;2023-06-04T00:53:32;5.70;;;1.93;;
12369;SDS011;6249;52.128;9.986;2023-06-04T01:03:33;5.25;;;2.20;;
12369;SDS011;6249;52.128;9.986;2023-06-04T01:13:37;4.13;;;2.10;;
12369;SDS011;6249;52.128;9.986;2023-06-04T01:33:39;4.73;;;2.00;;
12369;SDS011;6249;52.128;9.986;2023-06-04T01:43:40;3.87;;;1.97;;
12369;SDS011;6249;52.128;9.986;2023-06-04T01:53:40;4.83;;;2.27;;
12369;SDS011;6249;52.128;9.986;2023-06-04T02:03:41;5.73;;;2.07;;
12369;SDS011;6249;52.128;9.986;2023-06-04T02:13:47;4.87;;;2.20;;
12369;SDS011;6249;52.128;9.986;2023-06-04T02:23:48;8.77;;;2.10;;
12369;SDS011;6249;52.128;9.986;2023-06-04T02:33:51;3.57;;;1.73;;
12369;SDS011;6249;52.128;9.986;2023-06-04T02:43:52;5.57;;;2.25;;
12369;SDS011;6249;52.128;9.986;2023-06-04T02:53:52;6.10;;;2.50;;
12369;SDS011;6249;52.128;9.986;2023-06-04T03:03:53;4.50;;;1.77;;
12369;SDS011;6249;52.128;9.986;2023-06-04T03:13:54;6.07;;;2.10;;
12369;SDS011;6249;52.128;9.986;2023-06-04T03:23:55;5.27;;;2.40;;
12369;SDS011;6249;52.128;9.986;2023-06-04T03:33:56;8.57;;;2.30;;
12369;SDS011;6249;52.128;9.986;2023-06-04T03:43:56;6.50;;;2.40;;
12369;SDS011;6249;52.128;9.986;2023-06-04T03:53:57;6.38;;;2.60;;
12369;SDS011;6249;52.128;9.986;2023-06-04T04:03:59;4.30;;;1.87;;
12369;SDS011;6249;52.128;9.986;2023-06-04T04:13:59;6.13;;;2.15;;
12369;SDS011;6249;52.128;9.986;2023-06-04T04:24:05;6.03;;;1.90;;
12369;SDS011;6249;52.128;9.986;2023-06-04T04:34:07;6.37;;;2.03;;
12369;SDS011;6249;52.128;9.986;2023-06-04T04:44:09;5.77;;;2.40;;
12369;SDS011;6249;52.128;9.986;2023-06-04T04:54:13;11.33;;;2.43;;
12369;SDS011;6249;52.128;9.986;2023-06-04T05:04:13;6.70;;;2.10;;
12369;SDS011;6249;52.128;9.986;2023-06-04T05:14:14;7.33;;;2.77;;
12369;SDS011;6249;52.128;9.986;2023-06-04T05:24:17;5.17;;;2.20;;
12369;SDS011;6249;52.128;9.986;2023-06-04T05:34:20;8.43;;;2.50;;
12369;SDS011;6249;52.128;9.986;2023-06-04T05:44:23;6.50;;;2.00;;
12369;SDS011;6249;52.128;9.986;2023-06-04T05:54:26;5.00;;;2.25;;
12369;SDS011;6249;52.128;9.986;2023-06-04T06:04:27;5.23;;;2.30;;
12369;SDS011;6249;52.128;9.986;2023-06-04T06:14:31;8.17;;;2.50;;
12369;SDS011;6249;52.128;9.986;2023-06-04T06:24:34;5.77;;;2.57;;
12369;SDS011;6249;52.128;9.986;2023-06-04T06:34:36;4.87;;;2.30;;
12369;SDS011;6249;52.128;9.986;2023-06-04T06:44:38;6.47;;;2.60;;
12369;SDS011;6249;52.128;9.986;2023-06-04T06:54:38;5.60;;;2.33;;
12369;SDS011;6249;52.128;9.986;2023-06-04T07:04:41;6.17;;;2.07;;
12369;SDS011;6249;52.128;9.986;2023-06-04T07:14:42;8.90;;;2.03;;
12369;SDS011;6249;52.128;9.986;2023-06-04T07:24:45;6.53;;;2.57;;
12369;SDS011;6249;52.128;9.986;2023-06-04T07:34:46;7.87;;;3.77;;
12369;SDS011;6249;52.128;9.986;2023-06-04T07:44:46;10.17;;;3.10;;
12369;SDS011;6249;52.128;9.986;2023-06-04T07:54:47;10.67;;;4.73;;
12369;SDS011;6249;52.128;9.986;2023-06-04T08:04:50;8.30;;;3.30;;
12369;SDS011;6249;52.128;9.986;2023-06-04T08:14:51;12.15;;;4.38;;
12369;SDS011;6249;52.128;9.986;2023-06-04T08:24:56;7.30;;;3.33;;
12369;SDS011;6249;52.128;9.986;2023-06-04T08:34:57;6.13;;;2.60;;
12369;SDS011;6249;52.128;9.986;2023-06-04T08:44:57;4.47;;;1.47;;
12369;SDS011;6249;52.128;9.986;2023-06-04T08:55:03;4.50;;;1.73;;
12369;SDS011;6249;52.128;9.986;2023-06-04T09:05:05;12.03;;;2.30;;
12369;SDS011;6249;52.128;9.986;2023-06-04T09:15:10;6.77;;;2.00;;
12369;SDS011;6249;52.128;9.986;2023-06-04T09:25:18;6.83;;;1.93;;
12369;SDS011;6249;52.128;9.986;2023-06-04T09:35:24;4.93;;;1.87;;
12369;SDS011;6249;52.128;9.986;2023-06-04T09:45:34;4.90;;;1.60;;
12369;SDS011;6249;52.128;9.986;2023-06-04T09:55:35;3.70;;;1.50;;
12369;SDS011;6249;52.128;9.986;2023-06-04T10:05:35;4.17;;;1.60;;
12369;SDS011;6249;52.128;9.986;2023-06-04T10:15:40;4.67;;;1.67;;
12369;SDS011;6249;52.128;9.986;2023-06-04T10:25:43;4.40;;;1.50;;
12369;SDS011;6249;52.128;9.986;2023-06-04T10:35:45;3.93;;;1.93;;
12369;SDS011;6249;52.128;9.986;2023-06-04T10:45:46;5.33;;;1.57;;
12369;SDS011;6249;52.128;9.986;2023-06-04T10:55:49;3.47;;;1.47;;
12369;SDS011;6249;52.128;9.986;2023-06-04T11:05:52;6.37;;;2.40;;
12369;SDS011;6249;52.128;9.986;2023-06-04T11:15:55;5.40;;;1.90;;
12369;SDS011;6249;52.128;9.986;2023-06-04T11:26:00;5.10;;;1.93;;
12369;SDS011;6249;52.128;9.986;2023-06-04T11:36:01;4.03;;;1.60;;
12369;SDS011;6249;52.128;9.986;2023-06-04T11:46:05;3.70;;;1.57;;
12369;SDS011;6249;52.128;9.986;2023-06-04T11:56:05;5.23;;;1.87;;
12369;SDS011;6249;52.128;9.986;2023-06-04T12:16:13;5.07;;;1.60;;
12369;SDS011;6249;52.128;9.986;2023-06-04T12:26:21;4.90;;;2.00;;
12369;SDS011;6249;52.128;9.986;2023-06-04T12:36:29;3.57;;;1.63;;
12369;SDS011;6249;52.128;9.986;2023-06-04T12:46:34;4.93;;;1.50;;
12369;SDS011;6249;52.128;9.986;2023-06-04T12:56:40;4.43;;;1.70;;
12369;SDS011;6249;52.128;9.986;2023-06-04T13:06:44;4.30;;;1.63;;
12369;SDS011;6249;52.128;9.986;2023-06-04T13:16:49;3.60;;;1.50;;
12369;SDS011;6249;52.128;9.986;2023-06-04T13:26:51;6.53;;;1.90;;
12369;SDS011;6249;52.128;9.986;2023-06-04T13:36:54;4.53;;;1.70;;
12369;SDS011;6249;52.128;9.986;2023-06-04T13:46:57;4.17;;;1.60;;
12369;SDS011;6249;52.128;9.986;2023-06-04T13:57:02;4.27;;;1.50;;
12369;SDS011;6249;52.128;9.986;2023-06-04T14:07:06;6.50;;;1.67;;
12369;SDS011;6249;52.128;9.986;2023-06-04T14:17:07;3.23;;;1.53;;
12369;SDS011;6249;52.128;9.986;2023-06-04T14:27:08;3.60;;;1.70;;
12369;SDS011;6249;52.128;9.986;2023-06-04T14:37:11;6.30;;;1.60;;
12369;SDS011;6249;52.128;9.986;2023-06-04T14:47:14;2.70;;;1.10;;
12369;SDS011;6249;52.128;9.986;2023-06-04T14:57:17;4.33;;;1.33;;
12369;SDS011;6249;52.128;9.986;2023-06-04T15:07:19;3.93;;;1.60;;
12369;SDS011;6249;52.128;9.986;2023-06-04T15:17:25;3.43;;;1.53;;
12369;SDS011;6249;52.128;9.986;2023-06-04T15:27:28;3.50;;;1.50;;
12369;SDS011;6249;52.128;9.986;2023-06-04T15:37:28;4.30;;;1.53;;
12369;SDS011;6249;52.128;9.986;2023-06-04T15:47:29;3.30;;;1.40;;
12369;SDS011;6249;52.128;9.986;2023-06-04T15:57:34;3.80;;;1.57;;
12369;SDS011;6249;52.128;9.986;2023-06-04T16:07:34;3.80;;;1.73;;
12369;SDS011;6249;52.128;9.986;2023-06-04T16:17:35;4.50;;;1.80;;
12369;SDS011;6249;52.128;9.986;2023-06-04T16:27:36;8.10;;;2.03;;
12369;SDS011;6249;52.128;9.986;2023-06-04T16:37:36;6.43;;;1.47;;
12369;SDS011;6249;52.128;9.986;2023-06-04T16:47:37;3.60;;;1.40;;
12369;SDS011;6249;52.128;9.986;2023-06-04T16:57:40;3.63;;;1.60;;
12369;SDS011;6249;52.128;9.986;2023-06-04T17:07:43;3.30;;;1.43;;
12369;SDS011;6249;52.128;9.986;2023-06-04T17:17:44;3.77;;;1.50;;
12369;SDS011;6249;52.128;9.986;2023-06-04T17:27:47;4.50;;;1.50;;
12369;SDS011;6249;52.128;9.986;2023-06-04T17:37:50;2.70;;;1.27;;
12369;SDS011;6249;52.128;9.986;2023-06-04T17:47:53;6.67;;;1.30;;
12369;SDS011;6249;52.128;9.986;2023-06-04T17:57:56;4.23;;;2.30;;
12369;SDS011;6249;52.128;9.986;2023-06-04T18:07:57;3.97;;;1.80;;
12369;SDS011;6249;52.128;9.986;2023-06-04T18:18:00;3.50;;;1.50;;
12369;SDS011;6249;52.128;9.986;2023-06-04T18:28:00;3.60;;;1.90;;
12369;SDS011;6249;52.128;9.986;2023-06-04T18:38:03;5.23;;;1.63;;
12369;SDS011;6249;52.128;9.986;2023-06-04T18:48:06;4.80;;;1.63;;
12369;SDS011;6249;52.128;9.986;2023-06-04T18:58:09;4.50;;;1.70;;
12369;SDS011;6249;52.128;9.986;2023-06-04T19:08:10;4.70;;;1.37;;
12369;SDS011;6249;52.128;9.986;2023-06-04T19:18:13;4.07;;;1.60;;
12369;SDS011;6249;52.128;9.986;2023-06-04T19:28:17;5.30;;;1.90;;
12369;SDS011;6249;52.128;9.986;2023-06-04T19:38:17;3.50;;;1.50;;
12369;SDS011;6249;52.128;9.986;2023-06-04T19:48:20;3.57;;;1.53;;
12369;SDS011;6249;52.128;9.986;2023-06-04T19:58:21;6.13;;;2.43;;
12369;SDS011;6249;52.128;9.986;2023-06-04T20:08:25;3.70;;;1.57;;
12369;SDS011;6249;52.128;9.986;2023-06-04T20:18:28;4.53;;;1.87;;
12369;SDS011;6249;52.128;9.986;2023-06-04T20:28:33;4.77;;;1.53;;
12369;SDS011;6249;52.128;9.986;2023-06-04T20:38:33;3.50;;;1.53;;
12369;SDS011;6249;52.128;9.986;2023-06-04T20:48:36;5.17;;;1.47;;
12369;SDS011;6249;52.128;9.986;2023-06-04T20:58:37;4.70;;;1.80;;
12369;SDS011;6249;52.128;9.986;2023-06-04T21:08:40;5.33;;;2.17;;
12369;SDS011;6249;52.128;9.986;2023-06-04T21:18:43;4.43;;;1.87;;
12369;SDS011;6249;52.128;9.986;2023-06-04T21:28:44;3.67;;;1.97;;
12369;SDS011;6249;52.128;9.986;2023-06-04T21:38:49;4.60;;;1.60;;
12369;SDS011;6249;52.128;9.986;2023-06-04T21:48:50;5.57;;;1.87;;
12369;SDS011;6249;52.128;9.986;2023-06-04T21:58:50;8.80;;;1.93;;
12369;SDS011;6249;52.128;9.986;2023-06-04T22:08:53;4.80;;;1.80;;
12369;SDS011;6249;52.128;9.986;2023-06-04T22:18:56;6.83;;;1.93;;
12369;SDS011;6249;52.128;9.986;2023-06-04T22:28:59;6.70;;;1.93;;
12369;SDS011;6249;52.128;9.986;2023-06-04T22:38:59;5.37;;;2.23;;
12369;SDS011;6249;52.128;9.986;2023-06-04T22:49:00;8.00;;;2.03;;
12369;SDS011;6249;52.128;9.986;2023-06-04T22:59:00;6.65;;;2.20;;
12369;SDS011;6249;52.128;9.986;2023-06-04T23:09:06;7.50;;;2.20;;
12369;SDS011;6249;52.128;9.986;2023-06-04T23:19:07;7.20;;;2.40;;
12369;SDS011;6249;52.128;9.986;2023-06-04T23:29:09;7.63;;;2.57;;
12369;SDS011;6249;52.128;9.986;2023-06-04T23:39:10;7.13;;;2.47;;
12369;SDS011;6249;52.128;9.986;2023-06-04T23:49:11;11.60;;;3.87;;
12369;SDS011;6249;52.128;9.986;2023-06-04T23:59:14;6.03;;;2.30;;
